sensor_id;sensor_type;location;lat;lon;timestamp;temperature;humidity
30186;DHT22;31152;49.190;8.122;2023-10-09T00:01:44;15.90;99.90
30186;DHT22;31152;49.190;8.122;2023-10-09T00:04:13;15.80;99.90
30186;DHT22;31152;49.190;8.122;2023-10-09T00:06:47;15.80;99.90
30186;DHT22;31152;49.190;8.122;2023-10-09T00:09:15;15.90;99.90
30186;DHT22;31152;49.190;8.122;2023-10-09T00:11:54;15.90;99.90
30186;DHT22;31152;49.190;8.122;2023-10-09T00:14:28;16.00;99.90
30186;DHT22;31152;49.190;8.122;2023-10-09T00:17:06;16.00;99.90
30186;DHT22;31152;49.190;8.122;2023-10-09T00:19:39;16.00;99.90
30186;DHT22;31152;49.190;8.122;2023-10-09T00:22:09;16.00;99.90
30186;DHT22;31152;49.190;8.122;2023-10-09T00:24:57;16.00;99.90
30186;DHT22;31152;49.190;8.122;2023-10-09T00:27:40;16.00;99.90
30186;DHT22;31152;49.190;8.122;2023-10-09T00:30:11;16.00;99.90
30186;DHT22;31152;49.190;8.122;2023-10-09T00:32:42;16.00;99.90
30186;DHT22;31152;49.190;8.122;2023-10-09T00:35:17;16.20;99.90
30186;DHT22;31152;49.190;8.122;2023-10-09T00:38:07;16.30;99.90
30186;DHT22;31152;49.190;8.122;2023-10-09T00:40:54;16.50;99.90
30186;DHT22;31152;49.190;8.122;2023-10-09T00:43:30;16.60;99.90
30186;DHT22;31152;49.190;8.122;2023-10-09T00:45:59;16.70;99.90
30186;DHT22;31152;49.190;8.122;2023-10-09T00:48:57;16.80;99.90
30186;DHT22;31152;49.190;8.122;2023-10-09T00:51:26;16.90;99.90
30186;DHT22;31152;49.190;8.122;2023-10-09T00:53:58;17.00;99.90
30186;DHT22;31152;49.190;8.122;2023-10-09T00:56:34;17.10;99.90
30186;DHT22;31152;49.190;8.122;2023-10-09T00:59:15;17.20;99.90
30186;DHT22;31152;49.190;8.122;2023-10-09T01:01:49;17.30;99.90
30186;DHT22;31152;49.190;8.122;2023-10-09T01:04:31;17.30;99.90
30186;DHT22;31152;49.190;8.122;2023-10-09T01:07:06;17.20;99.90
30186;DHT22;31152;49.190;8.122;2023-10-09T01:09:52;17.10;99.90
30186;DHT22;31152;49.190;8.122;2023-10-09T01:12:21;17.00;99.90
30186;DHT22;31152;49.190;8.122;2023-10-09T01:14:48;17.00;99.90
30186;DHT22;31152;49.190;8.122;2023-10-09T01:17:24;16.90;99.90
30186;DHT22;31152;49.190;8.122;2023-10-09T01:20:03;16.80;99.90
30186;DHT22;31152;49.190;8.122;2023-10-09T01:22:34;16.80;99.90
30186;DHT22;31152;49.190;8.122;2023-10-09T01:25:03;16.70;99.90
30186;DHT22;31152;49.190;8.122;2023-10-09T01:27:35;16.60;99.90
30186;DHT22;31152;49.190;8.122;2023-10-09T01:30:05;16.60;99.90
30186;DHT22;31152;49.190;8.122;2023-10-09T01:32:33;16.60;99.90
30186;DHT22;31152;49.190;8.122;2023-10-09T01:35:04;16.50;99.90
30186;DHT22;31152;49.190;8.122;2023-10-09T01:37:50;16.40;99.90
30186;DHT22;31152;49.190;8.122;2023-10-09T01:40:18;16.40;99.90
30186;DHT22;31152;49.190;8.122;2023-10-09T01:43:02;16.40;99.90
30186;DHT22;31152;49.190;8.122;2023-10-09T01:45:30;16.40;99.90
30186;DHT22;31152;49.190;8.122;2023-10-09T01:48:11;16.40;99.90
30186;DHT22;31152;49.190;8.122;2023-10-09T01:50:39;16.40;99.90
30186;DHT22;31152;49.190;8.122;2023-10-09T01:53:08;16.40;99.90
30186;DHT22;31152;49.190;8.122;2023-10-09T01:55:36;16.40;99.90
30186;DHT22;31152;49.190;8.122;2023-10-09T01:58:07;16.40;99.90
30186;DHT22;31152;49.190;8.122;2023-10-09T02:00:51;16.40;99.90
30186;DHT22;31152;49.190;8.122;2023-10-09T02:03:22;16.30;99.90
30186;DHT22;31152;49.190;8.122;2023-10-09T02:05:54;16.30;99.90
30186;DHT22;31152;49.190;8.122;2023-10-09T02:08:26;16.30;99.90
30186;DHT22;31152;49.190;8.122;2023-10-09T02:11:02;16.30;99.90
30186;DHT22;31152;49.190;8.122;2023-10-09T02:13:33;16.30;99.90
30186;DHT22;31152;49.190;8.122;2023-10-09T02:16:08;16.30;99.90
30186;DHT22;31152;49.190;8.122;2023-10-09T02:18:41;16.30;99.90
30186;DHT22;31152;49.190;8.122;2023-10-09T02:21:22;16.30;99.90
30186;DHT22;31152;49.190;8.122;2023-10-09T02:24:06;16.30;99.90
30186;DHT22;31152;49.190;8.122;2023-10-09T02:26:36;16.40;99.90
30186;DHT22;31152;49.190;8.122;2023-10-09T02:29:23;16.40;99.90
30186;DHT22;31152;49.190;8.122;2023-10-09T02:31:53;16.30;99.90
30186;DHT22;31152;49.190;8.122;2023-10-09T02:34:27;16.30;99.90
30186;DHT22;31152;49.190;8.122;2023-10-09T02:36:54;16.30;99.90
30186;DHT22;31152;49.190;8.122;2023-10-09T02:39:25;16.30;99.90
30186;DHT22;31152;49.190;8.122;2023-10-09T02:41:54;16.30;99.90
30186;DHT22;31152;49.190;8.122;2023-10-09T02:44:46;16.30;99.90
30186;DHT22;31152;49.190;8.122;2023-10-09T02:47:18;16.30;99.90
30186;DHT22;31152;49.190;8.122;2023-10-09T02:49:51;16.20;99.90
30186;DHT22;31152;49.190;8.122;2023-10-09T02:52:27;16.20;99.90
30186;DHT22;31152;49.190;8.122;2023-10-09T02:55:00;16.20;99.90
30186;DHT22;31152;49.190;8.122;2023-10-09T02:57:34;16.20;99.90
30186;DHT22;31152;49.190;8.122;2023-10-09T03:00:04;16.20;99.90
30186;DHT22;31152;49.190;8.122;2023-10-09T03:02:46;16.20;99.90
30186;DHT22;31152;49.190;8.122;2023-10-09T03:05:17;16.20;99.90
30186;DHT22;31152;49.190;8.122;2023-10-09T03:07:47;16.10;99.90
30186;DHT22;31152;49.190;8.122;2023-10-09T03:10:18;16.10;99.90
30186;DHT22;31152;49.190;8.122;2023-10-09T03:12:44;16.10;99.90
30186;DHT22;31152;49.190;8.122;2023-10-09T03:15:11;16.10;99.90
30186;DHT22;31152;49.190;8.122;2023-10-09T03:17:39;16.00;99.90
30186;DHT22;31152;49.190;8.122;2023-10-09T03:20:09;16.00;99.90
30186;DHT22;31152;49.190;8.122;2023-10-09T03:22:41;16.00;99.90
30186;DHT22;31152;49.190;8.122;2023-10-09T03:25:09;16.00;99.90
30186;DHT22;31152;49.190;8.122;2023-10-09T03:27:43;15.90;99.90
30186;DHT22;31152;49.190;8.122;2023-10-09T03:30:17;15.90;99.90
30186;DHT22;31152;49.190;8.122;2023-10-09T03:32:52;15.80;99.90
30186;DHT22;31152;49.190;8.122;2023-10-09T03:35:22;15.80;99.90
30186;DHT22;31152;49.190;8.122;2023-10-09T03:37:56;15.70;99.90
30186;DHT22;31152;49.190;8.122;2023-10-09T03:40:42;15.70;99.90
30186;DHT22;31152;49.190;8.122;2023-10-09T03:43:10;15.70;99.90
30186;DHT22;31152;49.190;8.122;2023-10-09T03:45:40;15.60;99.90
30186;DHT22;31152;49.190;8.122;2023-10-09T03:48:19;15.70;99.90
30186;DHT22;31152;49.190;8.122;2023-10-09T03:50:52;15.60;99.90
30186;DHT22;31152;49.190;8.122;2023-10-09T03:53:36;15.60;99.90
30186;DHT22;31152;49.190;8.122;2023-10-09T03:56:07;15.50;99.90
30186;DHT22;31152;49.190;8.122;2023-10-09T03:58:43;15.50;99.90
30186;DHT22;31152;49.190;8.122;2023-10-09T04:01:19;15.50;99.90
30186;DHT22;31152;49.190;8.122;2023-10-09T04:03:59;15.50;99.90
30186;DHT22;31152;49.190;8.122;2023-10-09T04:06:28;15.50;99.90
30186;DHT22;31152;49.190;8.122;2023-10-09T04:09:07;15.40;99.90
30186;DHT22;31152;49.190;8.122;2023-10-09T04:12:00;15.40;99.90
30186;DHT22;31152;49.190;8.122;2023-10-09T04:14:42;15.40;99.90
30186;DHT22;31152;49.190;8.122;2023-10-09T04:17:22;15.40;99.90
30186;DHT22;31152;49.190;8.122;2023-10-09T04:19:51;15.30;99.90
30186;DHT22;31152;49.190;8.122;2023-10-09T04:22:37;15.20;99.90
30186;DHT22;31152;49.190;8.122;2023-10-09T04:25:20;15.20;99.90
30186;DHT22;31152;49.190;8.122;2023-10-09T04:27:56;15.10;99.90
30186;DHT22;31152;49.190;8.122;2023-10-09T04:30:39;15.10;99.90
30186;DHT22;31152;49.190;8.122;2023-10-09T04:33:23;15.10;99.90
30186;DHT22;31152;49.190;8.122;2023-10-09T04:36:05;15.00;99.90
30186;DHT22;31152;49.190;8.122;2023-10-09T04:38:52;15.00;99.90
30186;DHT22;31152;49.190;8.122;2023-10-09T04:41:42;15.00;99.90
30186;DHT22;31152;49.190;8.122;2023-10-09T04:44:09;15.10;99.90
30186;DHT22;31152;49.190;8.122;2023-10-09T04:46:49;15.30;99.90
30186;DHT22;31152;49.190;8.122;2023-10-09T04:49:42;15.40;99.90
30186;DHT22;31152;49.190;8.122;2023-10-09T04:52:18;15.40;99.90
30186;DHT22;31152;49.190;8.122;2023-10-09T04:54:55;15.50;99.90
30186;DHT22;31152;49.190;8.122;2023-10-09T05:00:18;15.50;99.90
30186;DHT22;31152;49.190;8.122;2023-10-09T05:02:59;15.40;99.90
30186;DHT22;31152;49.190;8.122;2023-10-09T05:05:31;15.30;99.90
30186;DHT22;31152;49.190;8.122;2023-10-09T05:08:11;15.30;99.90
30186;DHT22;31152;49.190;8.122;2023-10-09T05:11:10;15.30;99.90
30186;DHT22;31152;49.190;8.122;2023-10-09T05:13:56;15.30;99.90
30186;DHT22;31152;49.190;8.122;2023-10-09T05:16:39;15.40;99.90
30186;DHT22;31152;49.190;8.122;2023-10-09T05:19:24;15.60;99.90
30186;DHT22;31152;49.190;8.122;2023-10-09T05:22:09;16.00;99.90
30186;DHT22;31152;49.190;8.122;2023-10-09T05:24:57;16.40;99.90
30186;DHT22;31152;49.190;8.122;2023-10-09T05:27:29;16.60;99.90
30186;DHT22;31152;49.190;8.122;2023-10-09T05:30:17;16.90;99.90
30186;DHT22;31152;49.190;8.122;2023-10-09T05:32:57;17.00;99.90
30186;DHT22;31152;49.190;8.122;2023-10-09T05:35:50;17.00;99.90
30186;DHT22;31152;49.190;8.122;2023-10-09T05:38:41;16.90;99.90
30186;DHT22;31152;49.190;8.122;2023-10-09T05:41:13;16.80;99.90
30186;DHT22;31152;49.190;8.122;2023-10-09T05:44:12;16.60;99.90
30186;DHT22;31152;49.190;8.122;2023-10-09T05:46:58;16.40;99.90
30186;DHT22;31152;49.190;8.122;2023-10-09T05:49:43;16.30;99.90
30186;DHT22;31152;49.190;8.122;2023-10-09T05:52:16;16.20;99.90
30186;DHT22;31152;49.190;8.122;2023-10-09T05:55:01;16.00;99.90
30186;DHT22;31152;49.190;8.122;2023-10-09T05:57:46;16.00;99.90
30186;DHT22;31152;49.190;8.122;2023-10-09T06:00:25;15.90;99.90
30186;DHT22;31152;49.190;8.122;2023-10-09T06:03:11;15.90;99.90
30186;DHT22;31152;49.190;8.122;2023-10-09T06:05:55;15.90;99.90
30186;DHT22;31152;49.190;8.122;2023-10-09T06:08:23;15.90;99.90
30186;DHT22;31152;49.190;8.122;2023-10-09T06:10:53;15.90;99.90
30186;DHT22;31152;49.190;8.122;2023-10-09T06:13:57;15.80;99.90
30186;DHT22;31152;49.190;8.122;2023-10-09T06:16:31;15.80;99.90
30186;DHT22;31152;49.190;8.122;2023-10-09T06:19:16;15.80;99.90
30186;DHT22;31152;49.190;8.122;2023-10-09T06:21:46;15.80;99.90
30186;DHT22;31152;49.190;8.122;2023-10-09T06:24:20;15.80;99.90
30186;DHT22;31152;49.190;8.122;2023-10-09T06:26:50;15.80;99.90
30186;DHT22;31152;49.190;8.122;2023-10-09T06:29:26;15.80;99.90
30186;DHT22;31152;49.190;8.122;2023-10-09T06:32:12;15.80;99.90
30186;DHT22;31152;49.190;8.122;2023-10-09T06:34:46;15.80;99.90
30186;DHT22;31152;49.190;8.122;2023-10-09T06:37:21;15.80;99.90
30186;DHT22;31152;49.190;8.122;2023-10-09T06:39:56;15.80;99.90
30186;DHT22;31152;49.190;8.122;2023-10-09T06:42:26;15.70;99.90
30186;DHT22;31152;49.190;8.122;2023-10-09T06:45:02;15.60;99.90
30186;DHT22;31152;49.190;8.122;2023-10-09T06:47:32;15.50;99.90
30186;DHT22;31152;49.190;8.122;2023-10-09T06:50:09;15.40;99.90
30186;DHT22;31152;49.190;8.122;2023-10-09T06:52:53;15.40;99.90
30186;DHT22;31152;49.190;8.122;2023-10-09T06:55:27;15.30;99.90
30186;DHT22;31152;49.190;8.122;2023-10-09T06:58:03;15.20;99.90
30186;DHT22;31152;49.190;8.122;2023-10-09T07:00:42;15.10;99.90
30186;DHT22;31152;49.190;8.122;2023-10-09T07:03:28;15.10;99.90
30186;DHT22;31152;49.190;8.122;2023-10-09T07:06:07;15.10;99.90
30186;DHT22;31152;49.190;8.122;2023-10-09T07:14:14;15.00;99.90
30186;DHT22;31152;49.190;8.122;2023-10-09T07:17:02;15.00;99.90
30186;DHT22;31152;49.190;8.122;2023-10-09T07:19:43;15.00;99.90
30186;DHT22;31152;49.190;8.122;2023-10-09T07:22:11;14.90;99.90
30186;DHT22;31152;49.190;8.122;2023-10-09T07:24:54;14.90;99.90
30186;DHT22;31152;49.190;8.122;2023-10-09T07:27:32;15.00;99.90
30186;DHT22;31152;49.190;8.122;2023-10-09T07:30:13;14.90;99.90
30186;DHT22;31152;49.190;8.122;2023-10-09T07:33:12;14.90;99.90
30186;DHT22;31152;49.190;8.122;2023-10-09T07:35:41;14.90;99.90
30186;DHT22;31152;49.190;8.122;2023-10-09T07:40:47;14.90;99.90
30186;DHT22;31152;49.190;8.122;2023-10-09T07:46:06;15.00;99.90
30186;DHT22;31152;49.190;8.122;2023-10-09T07:48:52;15.00;99.90
30186;DHT22;31152;49.190;8.122;2023-10-09T07:51:20;15.10;99.90
30186;DHT22;31152;49.190;8.122;2023-10-09T07:53:50;15.10;99.90
30186;DHT22;31152;49.190;8.122;2023-10-09T07:56:26;15.10;99.90
30186;DHT22;31152;49.190;8.122;2023-10-09T07:58:57;15.20;99.90
30186;DHT22;31152;49.190;8.122;2023-10-09T08:01:26;15.20;99.90
30186;DHT22;31152;49.190;8.122;2023-10-09T08:04:02;15.30;99.90
30186;DHT22;31152;49.190;8.122;2023-10-09T08:06:38;15.30;99.90
30186;DHT22;31152;49.190;8.122;2023-10-09T08:09:06;15.40;99.90
30186;DHT22;31152;49.190;8.122;2023-10-09T08:11:49;15.40;99.90
30186;DHT22;31152;49.190;8.122;2023-10-09T08:14:46;15.50;99.90
30186;DHT22;31152;49.190;8.122;2023-10-09T08:17:17;15.60;99.90
30186;DHT22;31152;49.190;8.122;2023-10-09T08:19:55;15.70;99.90
30186;DHT22;31152;49.190;8.122;2023-10-09T08:24:53;15.80;99.90
30186;DHT22;31152;49.190;8.122;2023-10-09T08:27:28;15.90;99.90
30186;DHT22;31152;49.190;8.122;2023-10-09T08:30:06;15.90;99.90
30186;DHT22;31152;49.190;8.122;2023-10-09T08:32:49;16.10;99.90
30186;DHT22;31152;49.190;8.122;2023-10-09T08:35:34;16.20;99.90
30186;DHT22;31152;49.190;8.122;2023-10-09T08:38:03;16.30;99.90
30186;DHT22;31152;49.190;8.122;2023-10-09T08:40:41;16.40;99.90
30186;DHT22;31152;49.190;8.122;2023-10-09T08:43:14;16.50;99.90
30186;DHT22;31152;49.190;8.122;2023-10-09T08:45:53;16.60;99.90
30186;DHT22;31152;49.190;8.122;2023-10-09T08:48:20;16.80;99.90
30186;DHT22;31152;49.190;8.122;2023-10-09T08:50:55;16.90;99.90
30186;DHT22;31152;49.190;8.122;2023-10-09T08:53:23;17.10;99.90
30186;DHT22;31152;49.190;8.122;2023-10-09T08:55:50;17.20;99.90
30186;DHT22;31152;49.190;8.122;2023-10-09T08:58:24;17.40;99.90
30186;DHT22;31152;49.190;8.122;2023-10-09T09:01:06;17.50;99.90
30186;DHT22;31152;49.190;8.122;2023-10-09T09:03:41;17.70;99.90
30186;DHT22;31152;49.190;8.122;2023-10-09T09:06:10;17.90;99.90
30186;DHT22;31152;49.190;8.122;2023-10-09T09:08:43;17.90;99.90
30186;DHT22;31152;49.190;8.122;2023-10-09T09:11:16;18.10;99.90
30186;DHT22;31152;49.190;8.122;2023-10-09T09:14:05;18.20;99.90
30186;DHT22;31152;49.190;8.122;2023-10-09T09:16:45;18.30;99.90
30186;DHT22;31152;49.190;8.122;2023-10-09T09:19:18;18.50;99.90
30186;DHT22;31152;49.190;8.122;2023-10-09T09:21:50;18.50;99.90
30186;DHT22;31152;49.190;8.122;2023-10-09T09:24:37;18.70;99.90
30186;DHT22;31152;49.190;8.122;2023-10-09T09:27:06;18.80;99.90
30186;DHT22;31152;49.190;8.122;2023-10-09T09:29:46;18.90;99.90
30186;DHT22;31152;49.190;8.122;2023-10-09T09:32:30;19.10;99.90
30186;DHT22;31152;49.190;8.122;2023-10-09T09:35:03;19.10;99.90
30186;DHT22;31152;49.190;8.122;2023-10-09T09:37:54;19.20;99.90
30186;DHT22;31152;49.190;8.122;2023-10-09T09:40:21;19.50;99.90
30186;DHT22;31152;49.190;8.122;2023-10-09T09:43:02;19.70;99.90
30186;DHT22;31152;49.190;8.122;2023-10-09T09:45:34;19.80;99.90
30186;DHT22;31152;49.190;8.122;2023-10-09T09:48:06;19.90;99.90
30186;DHT22;31152;49.190;8.122;2023-10-09T09:50:33;20.00;99.90
30186;DHT22;31152;49.190;8.122;2023-10-09T09:53:04;20.00;99.90
30186;DHT22;31152;49.190;8.122;2023-10-09T09:55:35;20.10;99.90
30186;DHT22;31152;49.190;8.122;2023-10-09T09:58:13;20.00;99.90
30186;DHT22;31152;49.190;8.122;2023-10-09T10:00:50;20.00;99.90
30186;DHT22;31152;49.190;8.122;2023-10-09T10:03:30;20.10;99.90
30186;DHT22;31152;49.190;8.122;2023-10-09T10:06:00;20.30;99.90
30186;DHT22;31152;49.190;8.122;2023-10-09T10:08:41;20.40;99.90
30186;DHT22;31152;49.190;8.122;2023-10-09T10:11:44;20.60;99.90
30186;DHT22;31152;49.190;8.122;2023-10-09T10:14:14;20.70;99.90
30186;DHT22;31152;49.190;8.122;2023-10-09T10:17:07;20.80;99.90
30186;DHT22;31152;49.190;8.122;2023-10-09T10:22:42;20.80;99.90
30186;DHT22;31152;49.190;8.122;2023-10-09T10:25:33;20.80;99.90
30186;DHT22;31152;49.190;8.122;2023-10-09T10:31:03;20.60;99.90
30186;DHT22;31152;49.190;8.122;2023-10-09T10:36:24;20.60;99.90
30186;DHT22;31152;49.190;8.122;2023-10-09T10:39:03;20.50;99.90
30186;DHT22;31152;49.190;8.122;2023-10-09T10:41:40;20.50;99.90
30186;DHT22;31152;49.190;8.122;2023-10-09T10:44:31;20.50;99.90
30186;DHT22;31152;49.190;8.122;2023-10-09T10:47:10;20.40;99.90
30186;DHT22;31152;49.190;8.122;2023-10-09T10:49:54;20.40;99.90
30186;DHT22;31152;49.190;8.122;2023-10-09T10:52:42;20.40;99.90
30186;DHT22;31152;49.190;8.122;2023-10-09T10:55:11;20.40;99.90
30186;DHT22;31152;49.190;8.122;2023-10-09T10:57:45;20.40;99.90
30186;DHT22;31152;49.190;8.122;2023-10-09T11:00:28;20.50;99.90
30186;DHT22;31152;49.190;8.122;2023-10-09T11:03:23;20.50;99.90
30186;DHT22;31152;49.190;8.122;2023-10-09T11:06:01;20.50;99.90
30186;DHT22;31152;49.190;8.122;2023-10-09T11:08:44;20.50;99.90
30186;DHT22;31152;49.190;8.122;2023-10-09T11:11:22;20.50;99.90
30186;DHT22;31152;49.190;8.122;2023-10-09T11:13:49;20.60;99.90
30186;DHT22;31152;49.190;8.122;2023-10-09T11:16:22;20.70;99.90
30186;DHT22;31152;49.190;8.122;2023-10-09T11:19:13;20.80;99.90
30186;DHT22;31152;49.190;8.122;2023-10-09T11:21:56;20.90;99.90
30186;DHT22;31152;49.190;8.122;2023-10-09T11:24:48;21.10;99.90
30186;DHT22;31152;49.190;8.122;2023-10-09T11:27:30;21.20;99.90
30186;DHT22;31152;49.190;8.122;2023-10-09T11:29:59;21.40;99.90
30186;DHT22;31152;49.190;8.122;2023-10-09T11:32:36;21.50;99.90
30186;DHT22;31152;49.190;8.122;2023-10-09T11:35:12;21.60;99.90
30186;DHT22;31152;49.190;8.122;2023-10-09T11:38:00;21.80;99.90
30186;DHT22;31152;49.190;8.122;2023-10-09T11:40:28;22.10;99.90
30186;DHT22;31152;49.190;8.122;2023-10-09T11:43:01;22.40;99.60
30186;DHT22;31152;49.190;8.122;2023-10-09T11:45:30;22.50;99.20
30186;DHT22;31152;49.190;8.122;2023-10-09T11:48:19;22.90;98.50
30186;DHT22;31152;49.190;8.122;2023-10-09T11:50:54;23.50;97.90
30186;DHT22;31152;49.190;8.122;2023-10-09T11:53:46;23.80;96.60
30186;DHT22;31152;49.190;8.122;2023-10-09T11:56:17;24.50;95.50
30186;DHT22;31152;49.190;8.122;2023-10-09T11:58:49;24.90;94.00
30186;DHT22;31152;49.190;8.122;2023-10-09T12:01:20;25.00;93.90
30186;DHT22;31152;49.190;8.122;2023-10-09T12:03:50;25.30;92.80
30186;DHT22;31152;49.190;8.122;2023-10-09T12:06:19;25.10;92.50
30186;DHT22;31152;49.190;8.122;2023-10-09T12:08:51;24.40;92.10
30186;DHT22;31152;49.190;8.122;2023-10-09T12:11:18;24.10;92.20
30186;DHT22;31152;49.190;8.122;2023-10-09T12:13:53;23.90;92.90
30186;DHT22;31152;49.190;8.122;2023-10-09T12:16:24;23.80;93.50
30186;DHT22;31152;49.190;8.122;2023-10-09T12:18:56;23.80;93.20
30186;DHT22;31152;49.190;8.122;2023-10-09T12:21:23;24.10;92.50
30186;DHT22;31152;49.190;8.122;2023-10-09T12:23:51;24.60;91.80
30186;DHT22;31152;49.190;8.122;2023-10-09T12:26:19;25.10;91.40
30186;DHT22;31152;49.190;8.122;2023-10-09T12:28:49;25.50;90.10
30186;DHT22;31152;49.190;8.122;2023-10-09T12:31:17;25.80;87.90
30186;DHT22;31152;49.190;8.122;2023-10-09T12:33:48;26.00;86.40
30186;DHT22;31152;49.190;8.122;2023-10-09T12:36:16;26.50;84.10
30186;DHT22;31152;49.190;8.122;2023-10-09T12:38:48;26.80;83.50
30186;DHT22;31152;49.190;8.122;2023-10-09T12:41:20;27.20;81.60
30186;DHT22;31152;49.190;8.122;2023-10-09T12:43:55;27.50;78.90
30186;DHT22;31152;49.190;8.122;2023-10-09T12:46:25;27.90;76.50
30186;DHT22;31152;49.190;8.122;2023-10-09T12:48:53;28.00;75.70
30186;DHT22;31152;49.190;8.122;2023-10-09T12:51:24;28.10;73.20
30186;DHT22;31152;49.190;8.122;2023-10-09T12:53:57;28.20;72.30
30186;DHT22;31152;49.190;8.122;2023-10-09T12:56:27;28.40;72.60
30186;DHT22;31152;49.190;8.122;2023-10-09T12:59:00;28.70;70.60
30186;DHT22;31152;49.190;8.122;2023-10-09T13:01:31;29.10;68.90
30186;DHT22;31152;49.190;8.122;2023-10-09T13:04:01;29.00;67.40
30186;DHT22;31152;49.190;8.122;2023-10-09T13:06:28;29.20;67.10
30186;DHT22;31152;49.190;8.122;2023-10-09T13:08:56;29.60;65.80
30186;DHT22;31152;49.190;8.122;2023-10-09T13:11:26;29.60;63.40
30186;DHT22;31152;49.190;8.122;2023-10-09T13:13:55;29.50;63.00
30186;DHT22;31152;49.190;8.122;2023-10-09T13:16:22;29.40;64.30
30186;DHT22;31152;49.190;8.122;2023-10-09T13:18:55;29.90;60.60
30186;DHT22;31152;49.190;8.122;2023-10-09T13:21:27;29.20;60.20
30186;DHT22;31152;49.190;8.122;2023-10-09T13:24:00;28.90;59.70
30186;DHT22;31152;49.190;8.122;2023-10-09T13:26:29;28.00;61.00
30186;DHT22;31152;49.190;8.122;2023-10-09T13:29:01;27.90;61.60
30186;DHT22;31152;49.190;8.122;2023-10-09T13:31:29;27.80;61.10
30186;DHT22;31152;49.190;8.122;2023-10-09T13:34:02;27.60;59.60
30186;DHT22;31152;49.190;8.122;2023-10-09T13:36:35;27.40;60.30
30186;DHT22;31152;49.190;8.122;2023-10-09T13:39:08;27.20;60.60
30186;DHT22;31152;49.190;8.122;2023-10-09T13:41:55;27.30;60.00
30186;DHT22;31152;49.190;8.122;2023-10-09T13:44:34;27.00;60.40
30186;DHT22;31152;49.190;8.122;2023-10-09T13:47:04;27.20;60.30
30186;DHT22;31152;49.190;8.122;2023-10-09T13:49:35;27.30;61.30
30186;DHT22;31152;49.190;8.122;2023-10-09T13:52:09;27.20;60.00
30186;DHT22;31152;49.190;8.122;2023-10-09T13:54:36;27.20;59.90
30186;DHT22;31152;49.190;8.122;2023-10-09T13:57:04;27.40;59.20
30186;DHT22;31152;49.190;8.122;2023-10-09T13:59:33;27.60;59.40
30186;DHT22;31152;49.190;8.122;2023-10-09T14:02:03;27.60;59.30
30186;DHT22;31152;49.190;8.122;2023-10-09T14:04:39;27.40;59.80
30186;DHT22;31152;49.190;8.122;2023-10-09T14:07:09;27.30;59.90
30186;DHT22;31152;49.190;8.122;2023-10-09T14:09:37;27.10;59.60
30186;DHT22;31152;49.190;8.122;2023-10-09T14:12:22;27.30;59.30
30186;DHT22;31152;49.190;8.122;2023-10-09T14:14:52;27.60;58.70
30186;DHT22;31152;49.190;8.122;2023-10-09T14:17:22;27.60;58.00
30186;DHT22;31152;49.190;8.122;2023-10-09T14:19:57;28.00;58.00
30186;DHT22;31152;49.190;8.122;2023-10-09T14:22:43;28.10;58.10
30186;DHT22;31152;49.190;8.122;2023-10-09T14:25:12;27.70;58.50
30186;DHT22;31152;49.190;8.122;2023-10-09T14:27:42;27.50;58.70
30186;DHT22;31152;49.190;8.122;2023-10-09T14:30:10;27.30;59.40
30186;DHT22;31152;49.190;8.122;2023-10-09T14:32:50;27.00;60.30
30186;DHT22;31152;49.190;8.122;2023-10-09T14:35:23;26.60;61.60
30186;DHT22;31152;49.190;8.122;2023-10-09T14:37:57;26.20;63.30
30186;DHT22;31152;49.190;8.122;2023-10-09T14:40:31;25.90;64.40
30186;DHT22;31152;49.190;8.122;2023-10-09T14:42:59;25.80;64.40
30186;DHT22;31152;49.190;8.122;2023-10-09T14:45:26;25.70;64.90
30186;DHT22;31152;49.190;8.122;2023-10-09T14:47:53;25.50;65.60
30186;DHT22;31152;49.190;8.122;2023-10-09T14:50:21;25.50;65.90
30186;DHT22;31152;49.190;8.122;2023-10-09T14:52:50;25.40;66.00
30186;DHT22;31152;49.190;8.122;2023-10-09T14:55:24;25.30;67.20
30186;DHT22;31152;49.190;8.122;2023-10-09T14:57:58;25.30;67.60
30186;DHT22;31152;49.190;8.122;2023-10-09T15:00:26;25.30;68.20
30186;DHT22;31152;49.190;8.122;2023-10-09T15:02:53;25.10;68.60
30186;DHT22;31152;49.190;8.122;2023-10-09T15:05:20;25.00;69.10
30186;DHT22;31152;49.190;8.122;2023-10-09T15:07:49;25.00;69.80
30186;DHT22;31152;49.190;8.122;2023-10-09T15:10:17;24.90;70.20
30186;DHT22;31152;49.190;8.122;2023-10-09T15:12:46;24.90;70.90
30186;DHT22;31152;49.190;8.122;2023-10-09T15:15:17;24.80;71.40
30186;DHT22;31152;49.190;8.122;2023-10-09T15:17:45;24.80;71.90
30186;DHT22;31152;49.190;8.122;2023-10-09T15:20:15;24.80;72.40
30186;DHT22;31152;49.190;8.122;2023-10-09T15:22:48;24.70;72.40
30186;DHT22;31152;49.190;8.122;2023-10-09T15:25:15;24.60;72.70
30186;DHT22;31152;49.190;8.122;2023-10-09T15:27:44;24.50;73.20
30186;DHT22;31152;49.190;8.122;2023-10-09T15:30:11;24.40;73.40
30186;DHT22;31152;49.190;8.122;2023-10-09T15:32:44;24.40;73.70
30186;DHT22;31152;49.190;8.122;2023-10-09T15:35:12;24.30;74.30
30186;DHT22;31152;49.190;8.122;2023-10-09T15:37:42;24.30;74.70
30186;DHT22;31152;49.190;8.122;2023-10-09T15:40:10;24.20;75.10
30186;DHT22;31152;49.190;8.122;2023-10-09T15:42:48;24.20;75.20
30186;DHT22;31152;49.190;8.122;2023-10-09T15:45:25;24.20;75.60
30186;DHT22;31152;49.190;8.122;2023-10-09T15:47:55;24.10;75.80
30186;DHT22;31152;49.190;8.122;2023-10-09T15:50:22;24.10;75.60
30186;DHT22;31152;49.190;8.122;2023-10-09T15:52:54;24.00;75.70
30186;DHT22;31152;49.190;8.122;2023-10-09T15:55:25;24.00;75.80
30186;DHT22;31152;49.190;8.122;2023-10-09T15:57:57;24.10;75.70
30186;DHT22;31152;49.190;8.122;2023-10-09T16:00:30;24.10;75.80
30186;DHT22;31152;49.190;8.122;2023-10-09T16:02:57;24.10;75.70
30186;DHT22;31152;49.190;8.122;2023-10-09T16:05:30;24.00;75.80
30186;DHT22;31152;49.190;8.122;2023-10-09T16:08:02;24.00;76.00
30186;DHT22;31152;49.190;8.122;2023-10-09T16:10:30;24.00;75.80
30186;DHT22;31152;49.190;8.122;2023-10-09T16:13:01;24.00;75.80
30186;DHT22;31152;49.190;8.122;2023-10-09T16:15:28;23.90;75.40
30186;DHT22;31152;49.190;8.122;2023-10-09T16:17:55;23.90;75.40
30186;DHT22;31152;49.190;8.122;2023-10-09T16:20:26;23.90;75.10
30186;DHT22;31152;49.190;8.122;2023-10-09T16:22:53;23.90;75.20
30186;DHT22;31152;49.190;8.122;2023-10-09T16:25:23;23.80;74.90
30186;DHT22;31152;49.190;8.122;2023-10-09T16:27:53;23.70;74.50
30186;DHT22;31152;49.190;8.122;2023-10-09T16:30:24;23.60;74.10
30186;DHT22;31152;49.190;8.122;2023-10-09T16:32:52;23.60;74.60
30186;DHT22;31152;49.190;8.122;2023-10-09T16:35:19;23.40;75.20
30186;DHT22;31152;49.190;8.122;2023-10-09T16:37:49;23.40;74.70
30186;DHT22;31152;49.190;8.122;2023-10-09T16:40:17;23.30;75.20
30186;DHT22;31152;49.190;8.122;2023-10-09T16:42:48;23.30;75.30
30186;DHT22;31152;49.190;8.122;2023-10-09T16:45:20;23.20;75.40